createdAt,value
2017-07-31T00:01:26.225Z,4.22
2017-07-31T00:03:54.485Z,3.92
2017-07-31T00:06:22.736Z,5.30
2017-07-31T00:08:51.049Z,4.48
2017-07-31T00:11:19.327Z,4.48
2017-07-31T00:13:47.593Z,4.98
2017-07-31T00:16:15.907Z,3.96
2017-07-31T00:18:44.173Z,4.50
2017-07-31T00:21:12.436Z,4.16
2017-07-31T00:23:40.728Z,4.48
2017-07-31T00:26:09.001Z,4.32
2017-07-31T00:28:37.298Z,4.68
2017-07-31T00:31:05.553Z,4.74
2017-07-31T00:33:33.813Z,4.46
2017-07-31T00:36:02.112Z,5.26
2017-07-31T00:38:30.374Z,4.40
2017-07-31T00:40:58.633Z,4.32
2017-07-31T00:43:26.930Z,4.28
2017-07-31T00:45:55.197Z,5.96
2017-07-31T00:48:23.466Z,5.00
2017-07-31T00:50:51.770Z,4.70
2017-07-31T00:53:20.048Z,4.60
2017-07-31T00:55:48.332Z,4.08
2017-07-31T00:58:16.595Z,4.50
2017-07-31T01:00:44.913Z,4.90
2017-07-31T01:03:13.188Z,4.88
2017-07-31T01:05:41.448Z,4.88
2017-07-31T01:08:09.744Z,5.94
2017-07-31T01:10:38.004Z,5.12
2017-07-31T01:13:06.312Z,5.16
2017-07-31T01:15:34.585Z,4.74
2017-07-31T01:18:02.851Z,4.60
2017-07-31T01:20:31.149Z,4.60
2017-07-31T01:22:59.404Z,4.64
2017-07-31T01:25:27.666Z,5.16
2017-07-31T01:27:55.974Z,4.90
2017-07-31T01:30:24.236Z,4.78
2017-07-31T01:32:52.492Z,5.34
2017-07-31T01:35:20.803Z,5.60
2017-07-31T01:37:49.070Z,5.30
2017-07-31T01:40:17.328Z,4.80
2017-07-31T01:42:45.619Z,4.78
2017-07-31T01:45:13.897Z,4.56
2017-07-31T01:47:42.196Z,5.10
2017-07-31T01:50:10.468Z,5.66
2017-07-31T01:52:43.671Z,5.02
2017-07-31T01:55:11.920Z,5.18
2017-07-31T01:57:40.190Z,4.90
2017-07-31T02:00:08.489Z,5.94
2017-07-31T02:02:36.747Z,4.50
2017-07-31T02:05:05.004Z,5.32
2017-07-31T02:07:33.276Z,4.90
2017-07-31T02:10:01.527Z,4.92
2017-07-31T02:12:29.811Z,4.82
2017-07-31T02:14:58.076Z,6.06
2017-07-31T02:17:26.379Z,5.58
2017-07-31T02:19:54.643Z,5.62
2017-07-31T02:22:22.899Z,4.96
2017-07-31T02:24:51.174Z,6.46
2017-07-31T02:27:18.668Z,5.34
2017-07-31T02:29:47.015Z,5.20
2017-07-31T02:32:15.271Z,5.10
2017-07-31T02:34:43.523Z,5.22
2017-07-31T02:37:11.799Z,5.02
2017-07-31T02:39:40.059Z,5.70
2017-07-31T02:42:08.327Z,5.40
2017-07-31T02:44:36.625Z,5.58
2017-07-31T02:47:09.284Z,5.74
2017-07-31T02:49:37.780Z,5.40
2017-07-31T02:52:06.031Z,5.30
2017-07-31T02:54:34.283Z,6.54
2017-07-31T02:57:02.561Z,5.74
2017-07-31T02:59:30.043Z,5.50
2017-07-31T03:01:59.311Z,5.48
2017-07-31T03:04:27.576Z,5.80
2017-07-31T03:06:55.837Z,5.06
2017-07-31T03:09:24.132Z,6.00
2017-07-31T03:11:52.402Z,5.58
2017-07-31T03:14:20.691Z,5.96
2017-07-31T03:16:48.992Z,7.24
2017-07-31T03:19:17.253Z,5.30
2017-07-31T03:21:45.543Z,5.68
2017-07-31T03:24:13.796Z,6.14
2017-07-31T03:26:42.052Z,5.64
2017-07-31T03:29:10.325Z,6.80
2017-07-31T03:31:38.584Z,5.80
2017-07-31T03:34:06.878Z,5.50
2017-07-31T03:36:35.168Z,5.12
2017-07-31T03:39:03.463Z,5.70
2017-07-31T03:41:32.411Z,5.52
2017-07-31T03:44:00.683Z,6.38
2017-07-31T03:46:28.947Z,5.66
2017-07-31T03:48:57.220Z,6.32
2017-07-31T03:51:25.491Z,6.22
2017-07-31T03:53:53.750Z,5.86
2017-07-31T03:56:22.028Z,6.12
2017-07-31T03:58:50.285Z,5.76
2017-07-31T04:01:18.580Z,5.82
2017-07-31T04:03:46.840Z,6.12
2017-07-31T04:06:15.134Z,6.10
2017-07-31T04:08:43.395Z,5.68
2017-07-31T04:11:11.658Z,6.42
2017-07-31T04:13:39.931Z,5.98
2017-07-31T04:16:08.183Z,5.90
2017-07-31T04:18:36.456Z,6.08
2017-07-31T04:21:04.727Z,6.64
2017-07-31T04:23:32.983Z,6.18
2017-07-31T04:26:01.272Z,5.72
2017-07-31T04:28:29.535Z,6.64
2017-07-31T04:30:57.816Z,6.48
2017-07-31T04:33:26.071Z,6.24
2017-07-31T04:35:54.653Z,6.54
2017-07-31T04:38:22.919Z,6.36
2017-07-31T04:40:51.188Z,6.58
2017-07-31T04:43:19.462Z,6.70
2017-07-31T04:45:47.739Z,5.96
2017-07-31T04:48:16.049Z,6.64
2017-07-31T04:50:44.319Z,6.44
2017-07-31T04:53:12.584Z,6.10
2017-07-31T04:55:40.858Z,7.12
2017-07-31T04:58:09.122Z,5.76
2017-07-31T05:00:37.403Z,5.90
2017-07-31T05:03:05.667Z,6.30
2017-07-31T05:05:33.947Z,6.56
2017-07-31T05:08:02.199Z,5.70
2017-07-31T05:10:30.480Z,5.98
2017-07-31T05:12:58.746Z,6.50
2017-07-31T05:15:27.046Z,7.02
2017-07-31T05:17:55.345Z,6.64
2017-07-31T05:20:23.600Z,6.36
2017-07-31T05:22:51.855Z,6.88
2017-07-31T05:25:20.141Z,6.62
2017-07-31T05:27:48.421Z,7.30
2017-07-31T05:30:16.680Z,8.10
2017-07-31T05:32:44.967Z,6.88
2017-07-31T05:35:13.223Z,7.26
2017-07-31T05:37:41.532Z,7.28
2017-07-31T05:40:09.797Z,8.10
2017-07-31T05:42:38.053Z,7.36
2017-07-31T05:45:06.348Z,8.26
2017-07-31T05:47:34.603Z,8.58
2017-07-31T05:50:02.874Z,9.02
2017-07-31T05:52:31.173Z,10.32
2017-07-31T05:54:59.435Z,8.42
2017-07-31T05:57:27.687Z,9.50
2017-07-31T05:59:56.011Z,9.74
2017-07-31T06:02:24.263Z,7.98
2017-07-31T06:04:52.523Z,8.12
2017-07-31T06:07:20.803Z,9.76
2017-07-31T06:09:49.059Z,8.56
2017-07-31T06:12:17.363Z,8.60
2017-07-31T06:14:45.627Z,8.28
2017-07-31T06:17:13.884Z,9.48
2017-07-31T06:19:42.167Z,8.48
2017-07-31T06:22:10.423Z,8.96
2017-07-31T06:24:38.716Z,8.76
2017-07-31T06:27:06.973Z,9.00
2017-07-31T06:29:35.227Z,7.64
2017-07-31T06:32:03.523Z,8.74
2017-07-31T06:34:31.783Z,7.38
2017-07-31T06:37:00.042Z,7.80
2017-07-31T06:39:28.328Z,7.14
2017-07-31T06:41:56.655Z,6.14
2017-07-31T06:44:24.908Z,5.64
2017-07-31T06:46:53.160Z,5.80
2017-07-31T06:49:21.432Z,5.80
2017-07-31T06:51:49.695Z,6.30
2017-07-31T06:54:18.001Z,4.38
2017-07-31T06:56:46.259Z,4.74
2017-07-31T06:59:14.511Z,4.02
2017-07-31T07:01:42.806Z,4.64
2017-07-31T07:04:11.064Z,4.02
2017-07-31T07:06:39.366Z,3.96
2017-07-31T07:09:07.952Z,3.18
2017-07-31T07:11:36.222Z,3.92
2017-07-31T07:14:04.508Z,3.86
2017-07-31T07:16:32.774Z,3.46
2017-07-31T07:19:01.056Z,3.16
2017-07-31T07:21:29.340Z,3.70
2017-07-31T07:23:57.619Z,3.90
2017-07-31T07:26:25.911Z,3.24
2017-07-31T07:28:54.171Z,3.56
2017-07-31T07:31:22.471Z,3.50
2017-07-31T07:33:50.736Z,4.94
2017-07-31T07:36:19.003Z,3.42
2017-07-31T07:38:47.283Z,3.26
2017-07-31T07:41:15.537Z,3.44
2017-07-31T07:43:43.843Z,3.74
2017-07-31T07:46:12.095Z,3.54
2017-07-31T07:48:40.355Z,3.58
2017-07-31T07:51:08.636Z,3.74
2017-07-31T07:53:36.927Z,3.54
2017-07-31T07:56:05.187Z,3.54
2017-07-31T07:58:33.439Z,3.20
2017-07-31T08:01:01.736Z,3.16
2017-07-31T08:03:29.993Z,3.56
2017-07-31T08:05:58.243Z,2.96
2017-07-31T08:08:26.520Z,3.56
2017-07-31T08:10:54.767Z,3.18
2017-07-31T08:13:23.112Z,3.36
2017-07-31T08:15:51.363Z,3.76
2017-07-31T08:18:19.611Z,3.50
2017-07-31T08:20:47.897Z,3.28
2017-07-31T08:23:16.180Z,3.58
2017-07-31T08:25:44.468Z,3.10
2017-07-31T08:28:12.712Z,3.06
2017-07-31T08:30:41.004Z,3.10
2017-07-31T08:33:09.275Z,3.34
2017-07-31T08:35:37.531Z,2.92
2017-07-31T08:38:05.061Z,3.22
2017-07-31T08:40:33.319Z,2.76
2017-07-31T08:43:01.568Z,2.90
2017-07-31T08:45:29.866Z,2.70
2017-07-31T08:47:58.129Z,2.98
2017-07-31T08:50:26.380Z,3.32
2017-07-31T08:52:54.659Z,4.36
2017-07-31T08:55:22.932Z,3.08
2017-07-31T08:57:51.230Z,2.70
2017-07-31T09:00:19.499Z,2.88
2017-07-31T09:02:47.824Z,3.20
2017-07-31T09:05:16.089Z,3.00
2017-07-31T09:07:44.344Z,2.90
2017-07-31T09:10:12.634Z,2.94
2017-07-31T09:12:41.535Z,3.50
2017-07-31T09:15:10.529Z,3.14
2017-07-31T09:17:38.025Z,2.98
2017-07-31T09:20:05.515Z,3.24
2017-07-31T09:22:33.795Z,3.50
2017-07-31T09:25:02.095Z,3.42
2017-07-31T09:27:30.351Z,3.30
2017-07-31T09:29:58.607Z,3.30
2017-07-31T09:32:26.904Z,3.50
2017-07-31T09:34:55.163Z,4.08
2017-07-31T09:37:23.410Z,3.16
2017-07-31T09:39:51.675Z,3.30
2017-07-31T09:42:19.933Z,3.62
2017-07-31T09:44:47.471Z,3.42
2017-07-31T09:47:15.727Z,3.90
2017-07-31T09:49:43.216Z,3.84
2017-07-31T09:52:11.503Z,3.56
2017-07-31T09:54:39.754Z,4.86
2017-07-31T09:57:08.059Z,4.30
2017-07-31T09:59:36.307Z,3.24
2017-07-31T10:02:04.563Z,3.44
2017-07-31T10:04:32.096Z,4.08
2017-07-31T10:07:00.355Z,4.38
2017-07-31T10:09:28.641Z,3.98
2017-07-31T10:11:56.892Z,3.90
2017-07-31T10:14:25.184Z,3.90
2017-07-31T10:16:53.447Z,3.84
2017-07-31T10:19:21.707Z,4.04
2017-07-31T10:21:50.006Z,4.14
2017-07-31T10:24:18.259Z,3.90
2017-07-31T10:26:46.511Z,4.86
2017-07-31T10:29:14.797Z,3.90
2017-07-31T10:31:43.052Z,4.04
2017-07-31T10:34:11.341Z,4.16
2017-07-31T10:36:39.604Z,4.24
2017-07-31T10:39:07.905Z,4.44
2017-07-31T10:41:36.161Z,4.12
2017-07-31T10:44:04.419Z,4.86
2017-07-31T10:46:32.707Z,5.00
2017-07-31T10:49:00.965Z,4.56
2017-07-31T10:51:29.228Z,3.92
2017-07-31T10:53:57.522Z,4.64
2017-07-31T10:56:25.808Z,3.90
2017-07-31T10:58:54.131Z,3.80
2017-07-31T11:01:22.389Z,4.30
2017-07-31T11:03:50.647Z,5.00
2017-07-31T11:06:18.951Z,4.32
2017-07-31T11:08:47.207Z,4.12
2017-07-31T11:11:15.465Z,4.50
2017-07-31T11:13:43.767Z,5.10
2017-07-31T11:16:11.267Z,5.72
2017-07-31T11:18:39.512Z,4.46
2017-07-31T11:21:07.785Z,3.96
2017-07-31T11:23:36.040Z,4.42
2017-07-31T11:26:04.327Z,3.86
2017-07-31T11:28:32.586Z,3.86
2017-07-31T11:31:00.836Z,3.72
2017-07-31T11:33:29.121Z,4.94
2017-07-31T11:35:57.423Z,4.64
2017-07-31T11:38:25.685Z,4.40
2017-07-31T11:40:53.941Z,4.18
2017-07-31T11:43:22.204Z,4.66
2017-07-31T11:45:50.508Z,3.72
2017-07-31T11:48:18.772Z,4.94
2017-07-31T11:50:47.021Z,4.46
2017-07-31T11:53:15.324Z,4.22
2017-07-31T11:55:43.579Z,3.58
2017-07-31T11:58:11.833Z,3.92
2017-07-31T12:00:40.174Z,3.60
2017-07-31T12:03:08.427Z,3.74
2017-07-31T12:05:35.924Z,4.44
2017-07-31T12:08:04.244Z,4.54
2017-07-31T12:10:32.492Z,3.58
2017-07-31T12:13:00.800Z,3.92
2017-07-31T12:15:29.058Z,3.68
2017-07-31T12:17:57.310Z,3.60
2017-07-31T12:20:25.620Z,3.74
2017-07-31T12:22:53.881Z,3.90
2017-07-31T12:25:22.132Z,4.16
2017-07-31T12:27:50.417Z,3.18
2017-07-31T12:30:18.679Z,3.96
2017-07-31T12:32:46.963Z,4.02
2017-07-31T12:35:15.219Z,3.70
2017-07-31T12:37:43.471Z,4.84
2017-07-31T12:40:11.755Z,3.78
2017-07-31T12:42:40.012Z,4.44
2017-07-31T12:45:08.288Z,3.82
2017-07-31T12:47:35.826Z,3.62
2017-07-31T12:50:04.076Z,3.32
2017-07-31T12:52:32.330Z,3.66
2017-07-31T12:55:00.597Z,3.34
2017-07-31T12:57:28.850Z,3.02
2017-07-31T12:59:57.138Z,2.90
2017-07-31T13:02:25.396Z,2.56
2017-07-31T13:04:53.688Z,2.68
2017-07-31T13:07:21.941Z,3.24
2017-07-31T13:09:50.199Z,3.60
2017-07-31T13:12:18.504Z,2.60
2017-07-31T13:14:46.771Z,3.60
2017-07-31T13:17:15.032Z,2.48
2017-07-31T13:19:43.328Z,2.62
2017-07-31T13:22:11.587Z,2.70
2017-07-31T13:24:39.840Z,2.54
2017-07-31T13:27:08.141Z,2.94
2017-07-31T13:29:36.388Z,4.06
2017-07-31T13:32:04.643Z,2.44
2017-07-31T13:34:32.937Z,2.80
2017-07-31T13:37:01.196Z,3.22
2017-07-31T13:39:29.456Z,2.66
2017-07-31T13:41:57.747Z,2.58
2017-07-31T13:44:26.001Z,2.62
2017-07-31T13:46:54.256Z,2.70
2017-07-31T13:49:22.563Z,2.96
2017-07-31T13:51:50.811Z,2.86
2017-07-31T13:54:19.062Z,2.28
2017-07-31T13:56:47.325Z,2.28
2017-07-31T13:59:15.581Z,2.88
2017-07-31T14:01:43.883Z,2.44
2017-07-31T14:04:11.376Z,2.60
2017-07-31T14:06:39.632Z,2.74
2017-07-31T14:09:07.933Z,2.80
2017-07-31T14:11:36.195Z,2.50
2017-07-31T14:14:04.452Z,2.30
2017-07-31T14:16:32.760Z,2.60
2017-07-31T14:19:01.020Z,3.12
2017-07-31T14:21:29.279Z,2.48
2017-07-31T14:23:57.552Z,2.30
2017-07-31T14:26:25.804Z,2.78
2017-07-31T14:28:54.099Z,2.58
2017-07-31T14:31:22.370Z,2.20
2017-07-31T14:33:50.619Z,2.44
2017-07-31T14:36:18.899Z,2.50
2017-07-31T14:38:47.171Z,2.54
2017-07-31T14:41:15.427Z,2.70
2017-07-31T14:43:43.747Z,2.54
2017-07-31T14:46:11.999Z,2.12
2017-07-31T14:48:40.260Z,2.50
2017-07-31T14:51:08.547Z,2.30
2017-07-31T14:53:36.795Z,2.42
2017-07-31T14:56:05.075Z,2.60
2017-07-31T14:58:33.325Z,2.70
2017-07-31T15:01:01.611Z,3.02
2017-07-31T15:03:29.884Z,2.90
2017-07-31T15:05:58.137Z,2.36
2017-07-31T15:08:26.419Z,2.50
2017-07-31T15:10:54.671Z,2.48
2017-07-31T15:13:22.953Z,2.54
2017-07-31T15:15:51.211Z,3.22
2017-07-31T15:18:19.516Z,3.06
2017-07-31T15:20:47.779Z,2.50
2017-07-31T15:23:16.040Z,3.14
2017-07-31T15:25:44.317Z,2.78
2017-07-31T15:28:12.581Z,3.14
2017-07-31T15:30:40.107Z,3.00
2017-07-31T15:33:08.363Z,2.96
2017-07-31T15:35:36.650Z,2.30
2017-07-31T15:38:04.926Z,2.82
2017-07-31T15:40:33.176Z,3.10
2017-07-31T15:43:01.450Z,2.60
2017-07-31T15:45:29.724Z,2.70
2017-07-31T15:47:58.012Z,2.94
2017-07-31T15:50:26.267Z,3.92
2017-07-31T15:52:54.524Z,3.36
2017-07-31T15:55:22.801Z,2.98
2017-07-31T15:57:51.047Z,2.92
2017-07-31T16:00:19.351Z,3.14
2017-07-31T16:02:47.607Z,3.18
2017-07-31T16:05:15.866Z,3.20
2017-07-31T16:07:44.135Z,3.40
2017-07-31T16:10:12.392Z,3.10
2017-07-31T16:12:40.667Z,2.80
2017-07-31T16:15:08.943Z,4.16
2017-07-31T16:17:37.198Z,3.36
2017-07-31T16:20:05.499Z,3.32
2017-07-31T16:22:33.753Z,3.84
2017-07-31T16:25:02.011Z,2.70
2017-07-31T16:27:30.284Z,2.96
2017-07-31T16:29:58.540Z,3.20
2017-07-31T16:32:26.807Z,2.96
2017-07-31T16:34:55.063Z,3.10
2017-07-31T16:37:39.262Z,3.06
2017-07-31T16:40:26.336Z,3.30
2017-07-31T16:43:06.480Z,2.80
2017-07-31T16:45:39.748Z,2.92
2017-07-31T16:48:19.927Z,2.80
2017-07-31T16:50:48.200Z,2.92
2017-07-31T16:53:16.484Z,3.52
2017-07-31T16:55:44.775Z,2.82
2017-07-31T16:58:13.044Z,3.62
2017-07-31T17:00:41.352Z,3.40
2017-07-31T17:03:09.618Z,3.22
2017-07-31T17:05:37.875Z,8.16
2017-07-31T17:08:06.171Z,2.80
2017-07-31T17:10:34.432Z,3.62
2017-07-31T17:13:02.696Z,3.00
2017-07-31T17:15:31.031Z,3.02
2017-07-31T17:17:59.283Z,3.00
2017-07-31T17:20:27.539Z,2.88
2017-07-31T17:22:55.880Z,3.80
2017-07-31T17:25:24.188Z,2.66
2017-07-31T17:27:52.455Z,3.10
2017-07-31T17:30:20.753Z,2.96
2017-07-31T17:32:49.040Z,2.78
2017-07-31T17:35:17.335Z,3.40
2017-07-31T17:37:45.583Z,3.20
2017-07-31T17:40:13.836Z,2.90
2017-07-31T17:42:42.128Z,3.04
2017-07-31T17:45:10.388Z,2.76
2017-07-31T17:47:38.679Z,3.84
2017-07-31T17:50:06.189Z,3.30
2017-07-31T17:52:34.489Z,3.30
2017-07-31T17:55:02.747Z,2.82
2017-07-31T17:57:31.016Z,2.86
2017-07-31T17:59:59.320Z,2.98
2017-07-31T18:02:27.580Z,3.06
2017-07-31T18:04:55.839Z,3.12
2017-07-31T18:07:24.144Z,2.46
2017-07-31T18:09:52.407Z,3.02
2017-07-31T18:12:20.667Z,4.02
2017-07-31T18:14:48.952Z,3.04
2017-07-31T18:17:17.203Z,2.60
2017-07-31T18:19:45.497Z,2.74
2017-07-31T18:22:13.799Z,3.02
2017-07-31T18:24:42.060Z,3.14
2017-07-31T18:27:10.323Z,4.22
2017-07-31T18:29:38.633Z,3.88
2017-07-31T18:32:06.910Z,3.20
2017-07-31T18:34:35.265Z,3.94
2017-07-31T18:37:03.560Z,3.48
2017-07-31T18:39:33.762Z,3.32
2017-07-31T18:42:02.061Z,3.94
2017-07-31T18:44:30.328Z,3.42
2017-07-31T18:46:58.599Z,3.26
2017-07-31T18:49:26.892Z,3.02
2017-07-31T18:51:58.526Z,2.84
2017-07-31T18:54:26.063Z,2.96
2017-07-31T18:56:54.324Z,3.68
2017-07-31T18:59:22.611Z,3.08
2017-07-31T19:01:50.888Z,3.30
2017-07-31T19:04:20.215Z,3.40
2017-07-31T19:06:48.540Z,3.28
2017-07-31T19:09:16.796Z,3.16
2017-07-31T19:11:45.056Z,3.40
2017-07-31T19:14:12.588Z,3.62
2017-07-31T19:16:42.830Z,2.68
2017-07-31T19:19:11.128Z,3.14
2017-07-31T19:21:45.315Z,2.82
2017-07-31T19:24:13.644Z,3.52
2017-07-31T19:26:41.911Z,3.02
2017-07-31T19:29:10.177Z,2.64
2017-07-31T19:31:39.488Z,3.12
2017-07-31T19:34:07.746Z,3.08
2017-07-31T19:36:36.092Z,3.18
2017-07-31T19:39:04.451Z,3.10
2017-07-31T19:41:32.723Z,2.90
2017-07-31T19:44:01.027Z,2.84
2017-07-31T19:46:29.299Z,2.96
2017-07-31T19:48:57.570Z,2.80
2017-07-31T19:51:25.884Z,3.20
2017-07-31T19:53:54.152Z,3.20
2017-07-31T19:56:23.368Z,3.06
2017-07-31T19:58:51.682Z,3.22
2017-07-31T20:01:19.943Z,3.64
2017-07-31T20:03:48.268Z,3.30
2017-07-31T20:06:16.571Z,3.46
2017-07-31T20:08:46.869Z,3.24
2017-07-31T20:11:15.168Z,3.10
2017-07-31T20:13:43.492Z,3.20
2017-07-31T20:16:11.763Z,3.10
2017-07-31T20:18:40.073Z,3.48
2017-07-31T20:21:08.351Z,3.22
2017-07-31T20:23:36.616Z,3.12
2017-07-31T20:26:04.908Z,4.00
2017-07-31T20:28:33.167Z,3.78
2017-07-31T20:31:01.500Z,3.24
2017-07-31T20:33:29.761Z,4.00
2017-07-31T20:35:58.019Z,3.22
2017-07-31T20:38:26.324Z,3.58
2017-07-31T20:40:56.504Z,3.30
2017-07-31T20:43:24.779Z,3.38
2017-07-31T20:45:52.349Z,3.10
2017-07-31T20:48:20.608Z,3.40
2017-07-31T20:50:48.868Z,3.96
2017-07-31T20:53:17.144Z,3.22
2017-07-31T20:55:45.410Z,3.80
2017-07-31T20:58:13.692Z,3.40
2017-07-31T21:00:41.950Z,3.50
2017-07-31T21:03:10.237Z,3.52
2017-07-31T21:05:37.745Z,3.60
2017-07-31T21:08:06.025Z,3.54
2017-07-31T21:10:34.324Z,3.40
2017-07-31T21:13:02.588Z,3.64
2017-07-31T21:15:30.875Z,3.70
2017-07-31T21:17:59.162Z,3.84
2017-07-31T21:20:27.435Z,3.76
2017-07-31T21:22:55.716Z,4.04
2017-07-31T21:25:24.000Z,3.40
2017-07-31T21:27:52.331Z,3.74
2017-07-31T21:30:20.640Z,4.14
2017-07-31T21:32:48.900Z,3.94
2017-07-31T21:35:17.164Z,4.18
2017-07-31T21:37:44.665Z,3.36
2017-07-31T21:40:12.916Z,3.82
2017-07-31T21:42:41.188Z,3.68
2017-07-31T21:45:08.685Z,4.00
2017-07-31T21:47:36.967Z,3.80
2017-07-31T21:50:05.240Z,3.58
2017-07-31T21:52:33.493Z,4.32
2017-07-31T21:55:01.765Z,3.72
2017-07-31T21:57:30.019Z,3.38
2017-07-31T21:59:58.316Z,4.02
2017-07-31T22:02:26.571Z,4.10
2017-07-31T22:04:54.827Z,4.14
2017-07-31T22:07:23.140Z,4.26
2017-07-31T22:09:51.399Z,3.60
2017-07-31T22:12:19.656Z,3.66
2017-07-31T22:14:47.954Z,4.12
2017-07-31T22:17:21.831Z,3.64
2017-07-31T22:19:50.088Z,3.50
2017-07-31T22:22:18.345Z,3.60
2017-07-31T22:24:46.636Z,4.52
2017-07-31T22:27:14.939Z,4.22
2017-07-31T22:29:42.435Z,4.88
2017-07-31T22:32:10.700Z,4.24
2017-07-31T22:34:39.007Z,3.74
2017-07-31T22:37:07.259Z,4.28
2017-07-31T22:39:35.517Z,4.92
2017-07-31T22:42:03.792Z,4.90
2017-07-31T22:44:32.048Z,4.64
2017-07-31T22:47:00.344Z,4.26
2017-07-31T22:49:28.603Z,4.28
2017-07-31T22:51:56.860Z,3.30
2017-07-31T22:54:25.163Z,3.96
2017-07-31T22:56:53.429Z,4.38
2017-07-31T22:59:21.712Z,4.60
2017-07-31T23:01:50.008Z,4.00
2017-07-31T23:04:18.270Z,4.00
2017-07-31T23:06:46.531Z,4.74
2017-07-31T23:09:14.824Z,4.18
2017-07-31T23:11:43.088Z,4.78
2017-07-31T23:14:11.400Z,3.96
2017-07-31T23:16:38.892Z,4.18
2017-07-31T23:19:07.186Z,4.48
2017-07-31T23:21:35.440Z,4.26
2017-07-31T23:24:02.944Z,4.68
2017-07-31T23:26:31.228Z,4.18
2017-07-31T23:28:59.485Z,4.38
2017-07-31T23:31:27.759Z,4.20
2017-07-31T23:33:56.060Z,4.32
2017-07-31T23:36:24.351Z,4.42
2017-07-31T23:38:52.651Z,4.20
2017-07-31T23:41:20.899Z,4.44
2017-07-31T23:43:49.171Z,4.48
2017-07-31T23:46:17.515Z,4.28
2017-07-31T23:48:45.779Z,3.80
2017-07-31T23:51:14.033Z,4.08
2017-07-31T23:53:42.317Z,3.72
2017-07-31T23:56:10.578Z,4.98
2017-07-31T23:58:38.858Z,4.56
